CYHZ/YHZ METAR and TAF weather

Enter ICAO airport designator
Station Type Date Time Source
CYHZ METAR 2019/10/21 23:00 UTC NOAA

CYHZ 212300Z 17006KT 15SM SKC 09/08 A3015 RMK SLP214


Station Type Date Time Source
CYHZ Decoded METAR 2019/10/21 23:00 UTC NOAA

Halifax International Airport , Canada (CYHZ) 44-53N 063-30W
Oct 21, 2019 - 07:00 PM EDT / 2019.10.21 2300 UTC
Wind: from the S (170 degrees) at 7 MPH (6 KT):0
Visibility: 15 mile(s):0
Sky conditions: clear
Temperature: 48 F (9 C)
Dew Point: 46 F (8 C)
Relative Humidity: 93%
Pressure (altimeter): 30.15 in. Hg (1020 hPa)
ob: CYHZ 212300Z 17006KT 15SM SKC 09/08 A3015 RMK SLP214
cycle: 23

Station Type Date Time Source
CYHZ TAF 2019/10/21 21:45 UTC NOAA

TAF TAF CYHZ 212043Z 2121/2218 19008KT P6SM FEW030 SCT100
FM212200 20006KT P6SM SKC
FM220400 35006KT P6SM SKC PROB30 2204/2208 1SM BR
FM220800 02006KT 6SM BR SKC PROB30 2208/2211 1/2SM FG BKN002
FM221400 06010KT P6SM FEW030
BECMG 2216/2218 10010KT
RMK NXT FCST BY 220000Z

Example: see airport list